Terminal Aerodrome Forecast
Issued by NWS

Home | Current Version | Previous Version | Text Only | Print | Product List | Glossary On
Versions: 1 2 3 4 5 6 7 8 9 10 11 12 13 14 15 16 17 18 19 20
000
FTUS42 KTBW 041527 AAD
TAFLAL
TAF AMD
KLAL 041527Z 0415/0512 28008KT 6SM RA SCT009 BKN035
     FM041600 23010KT 6SM TSRA SCT010 BKN025CB OVC040
     FM042000 27007KT P6SM VCSH BKN020
     FM050000 28009KT P6SM FEW025 SCT100=

USA.gov is the U.S. government's official web portal to all federal, state and local government web resources and services.